Terminal Aerodrome Forecast
Issued by NWS Rapid City, SD

Home | Current Version | Previous Version | Text Only | Print | Product List | Glossary Off
Versions: 1 2 3 4 5 6 7 8 9 10 11 12 13 14 15 16 17 18 19 20

175
FTUS43 KUNR 241720
TAFRAP
TAF
KRAP 241720Z 2418/2518 13009KT P6SM BKN250
      TEMPO 2422/2502 -TSRA OVC050CB
     FM250200 09010KT P6SM VCSH OVC030
     FM250500 02009KT P6SM SCT090=

USA.gov is the U.S. government's official web portal to all federal, state and local government web resources and services.